createdAt,value
2023-04-15T00:07:31.330Z,100865.34
2023-04-15T00:12:42.390Z,100849.47
2023-04-15T00:36:38.583Z,100857.16
2023-04-15T00:41:43.294Z,100859.97
2023-04-15T00:46:42.271Z,100852.50
2023-04-15T00:51:52.547Z,100849.25
2023-04-15T00:56:50.020Z,100849.16
2023-04-15T01:01:46.996Z,100857.88
2023-04-15T01:06:43.444Z,100855.66
2023-04-15T01:11:49.405Z,100849.97
2023-04-15T01:22:45.757Z,100842.59
2023-04-15T01:27:42.506Z,100844.94
2023-04-15T01:32:39.085Z,100835.69
2023-04-15T01:37:36.728Z,100836.50
2023-04-15T01:42:33.679Z,100822.06
2023-04-15T01:47:30.343Z,100821.41
2023-04-15T01:52:26.880Z,100814.97
2023-04-15T01:57:23.262Z,100812.91
2023-04-15T02:02:19.796Z,100814.06
2023-04-15T02:07:16.466Z,100804.78
2023-04-15T02:12:13.402Z,100800.41
2023-04-15T02:17:09.819Z,100795.31
2023-04-15T02:22:09.094Z,100797.03
2023-04-15T02:27:06.028Z,100804.88
2023-04-15T02:32:02.575Z,100806.22
2023-04-15T02:36:59.079Z,100807.91
2023-04-15T02:41:55.604Z,100813.53
2023-04-15T02:46:53.599Z,100805.13
2023-04-15T02:51:51.120Z,100805.13
2023-04-15T02:56:47.783Z,100801.97
2023-04-15T03:01:44.453Z,100802.69
2023-04-15T03:06:40.869Z,100805.94
2023-04-15T03:11:40.621Z,100807.25
2023-04-15T03:16:37.085Z,100803.94
2023-04-15T03:21:33.521Z,100805.94
2023-04-15T03:26:31.599Z,100801.28
2023-04-15T03:31:28.077Z,100796.25
2023-04-15T03:36:24.626Z,100798.66
2023-04-15T03:41:24.306Z,100806.72
2023-04-15T03:46:21.370Z,100800.84
2023-04-15T03:51:21.926Z,100789.63
2023-04-15T04:14:35.198Z,100808.38
2023-04-15T04:19:31.654Z,100801.88
2023-04-15T04:24:28.180Z,100809.59
2023-04-15T04:29:31.139Z,100810.91
2023-04-15T04:34:29.067Z,100824.16
2023-04-15T04:39:40.086Z,100809.84
2023-04-15T04:50:03.493Z,100815.84
2023-04-15T04:54:59.903Z,100814.00
2023-04-15T04:59:56.560Z,100805.56
2023-04-15T05:04:54.461Z,100806.88
2023-04-15T05:09:50.909Z,100817.59
2023-04-15T05:14:47.463Z,100812.91
2023-04-15T05:19:43.895Z,100811.53
2023-04-15T06:07:37.519Z,100848.22
2023-04-15T06:12:34.127Z,100854.81
2023-04-15T06:35:04.898Z,100864.25
2023-04-15T06:40:01.384Z,100860.22
2023-04-15T06:44:57.974Z,100866.31
2023-04-15T06:50:21.913Z,100866.81
2023-04-15T06:55:18.421Z,100869.41
2023-04-15T07:00:15.648Z,100869.03
2023-04-15T07:05:12.698Z,100871.75
2023-04-15T07:10:09.931Z,100878.75
2023-04-15T07:15:07.033Z,100886.16
2023-04-15T07:20:04.824Z,100896.41
2023-04-15T07:25:01.345Z,100881.63
2023-04-15T07:29:57.843Z,100890.75
2023-04-15T07:34:54.434Z,100891.03
2023-04-15T07:40:42.314Z,100908.41
2023-04-15T07:45:38.715Z,100904.34
2023-04-15T07:50:35.496Z,100901.00
2023-04-15T07:55:31.943Z,100915.00
2023-04-15T08:00:28.412Z,100911.31
2023-04-15T08:05:25.668Z,100916.91
2023-04-15T08:10:22.501Z,100917.53
2023-04-15T08:15:19.003Z,100924.34
2023-04-15T08:20:15.434Z,100931.03
2023-04-15T08:25:11.823Z,100927.56
2023-04-15T08:30:08.963Z,100932.69
2023-04-15T08:35:06.274Z,100933.25
2023-04-15T08:40:02.797Z,100938.16
2023-04-15T08:45:01.578Z,100943.81
2023-04-15T08:49:58.550Z,100938.78
2023-04-15T08:55:00.801Z,100943.19
2023-04-15T08:59:57.755Z,100940.50
2023-04-15T09:04:54.172Z,100954.56
2023-04-15T09:09:51.568Z,100961.75
2023-04-15T09:14:49.351Z,100969.19
2023-04-15T09:19:45.961Z,100972.56
2023-04-15T09:24:43.372Z,100963.22
2023-04-15T09:29:41.743Z,100971.88
2023-04-15T09:34:38.336Z,100960.50
2023-04-15T09:39:51.910Z,100963.38
2023-04-15T09:44:48.383Z,100961.47
2023-04-15T09:49:56.518Z,100968.06
2023-04-15T09:54:56.005Z,100968.09
2023-04-15T09:59:52.721Z,100967.41
2023-04-15T10:04:49.686Z,100981.06
2023-04-15T10:09:46.907Z,100986.41
2023-04-15T10:14:44.458Z,100979.28
2023-04-15T10:19:41.707Z,100988.63
2023-04-15T10:24:38.968Z,100988.66
2023-04-15T10:29:35.840Z,100997.28
2023-04-15T10:34:32.684Z,100996.56
2023-04-15T10:39:41.149Z,100994.78
2023-04-15T10:44:38.955Z,101004.28
2023-04-15T10:49:42.605Z,100997.00
2023-04-15T10:54:39.558Z,100986.19
2023-04-15T10:59:37.756Z,100989.59
2023-04-15T11:04:53.244Z,100998.47
2023-04-15T11:09:49.802Z,101000.75
2023-04-15T11:14:46.617Z,101008.13
2023-04-15T11:19:43.650Z,101009.59
2023-04-15T11:24:52.041Z,101007.16
2023-04-15T11:29:48.615Z,101019.34
2023-04-15T11:34:46.577Z,101020.72
2023-04-15T11:39:43.020Z,101035.31
2023-04-15T11:44:39.440Z,101037.75
2023-04-15T11:49:40.071Z,101051.63
2023-04-15T11:54:37.438Z,101049.38
2023-04-15T11:59:46.001Z,101053.81
2023-04-15T12:04:43.026Z,101060.13
2023-04-15T12:09:40.064Z,101053.28
2023-04-15T12:14:38.174Z,101067.19
2023-04-15T12:19:41.599Z,101072.31
2023-04-15T12:24:38.599Z,101077.63
2023-04-15T12:29:36.938Z,101090.22
2023-04-15T12:34:45.250Z,101095.22
2023-04-15T12:39:43.431Z,101109.28
2023-04-15T12:44:40.376Z,101104.63
2023-04-15T12:49:37.536Z,101115.44
2023-04-15T12:54:34.697Z,101115.47
2023-04-15T12:59:31.226Z,101117.53
2023-04-15T13:04:30.619Z,101113.97
2023-04-15T13:09:27.261Z,101115.16
2023-04-15T13:14:23.719Z,101124.56
2023-04-15T13:19:20.137Z,101131.06
2023-04-15T13:24:16.589Z,101129.03
2023-04-15T13:29:14.020Z,101141.88
2023-04-15T13:34:10.561Z,101149.44
2023-04-15T13:39:07.045Z,101143.66
2023-04-15T13:44:03.583Z,101148.84
2023-04-15T13:49:00.162Z,101141.56
2023-04-15T13:53:58.127Z,101149.34
2023-04-15T13:58:58.692Z,101156.28
2023-04-15T14:03:55.768Z,101161.75
2023-04-15T14:08:53.082Z,101177.63
2023-04-15T14:13:49.625Z,101178.59
2023-04-15T14:18:48.240Z,101178.59
2023-04-15T14:23:44.720Z,101180.22
2023-04-15T14:28:41.142Z,101192.03
2023-04-15T14:33:37.604Z,101199.19
2023-04-15T14:38:38.313Z,101204.31
2023-04-15T14:43:35.275Z,101212.56
2023-04-15T14:48:32.065Z,101214.44
2023-04-15T14:53:28.589Z,101236.31
2023-04-15T14:58:25.513Z,101228.22
2023-04-15T15:03:22.212Z,101242.06
2023-04-15T15:08:18.765Z,101242.88
2023-04-15T15:13:15.692Z,101249.19
2023-04-15T15:18:12.322Z,101259.44
2023-04-15T15:23:08.855Z,101258.66
2023-04-15T15:28:05.824Z,101269.19
2023-04-15T15:33:02.448Z,101258.16
2023-04-15T15:38:00.515Z,101271.31
2023-04-15T15:42:56.985Z,101272.38
2023-04-15T15:47:53.571Z,101270.69
2023-04-15T15:52:50.195Z,101280.66
2023-04-15T15:57:46.720Z,101296.16
2023-04-15T16:07:42.993Z,101306.84
2023-04-15T16:12:39.732Z,101311.53
2023-04-15T16:17:36.317Z,101318.75
2023-04-15T16:22:34.961Z,101332.09
2023-04-15T16:27:31.520Z,101330.81
2023-04-15T16:32:28.096Z,101340.44
2023-04-15T16:37:24.541Z,101344.41
2023-04-15T16:42:21.034Z,101353.56
2023-04-15T16:47:17.573Z,101364.09
2023-04-15T16:52:14.144Z,101361.78
2023-04-15T16:57:10.586Z,101370.88
2023-04-15T17:02:11.339Z,101387.25
2023-04-15T17:07:08.934Z,101385.97
2023-04-15T17:12:06.124Z,101384.53
2023-04-15T17:17:02.527Z,101393.13
2023-04-15T17:21:59.545Z,101396.91
2023-04-15T17:26:56.767Z,101402.78
2023-04-15T17:31:54.642Z,101405.25
2023-04-15T17:36:53.418Z,101415.50
2023-04-15T17:41:49.865Z,101414.50
2023-04-15T17:46:47.157Z,101421.91
2023-04-15T17:51:44.881Z,101430.50
2023-04-15T17:56:41.615Z,101428.88
2023-04-15T18:01:38.395Z,101431.94
2023-04-15T18:06:38.725Z,101446.50
2023-04-15T18:11:35.720Z,101449.13
2023-04-15T18:16:32.533Z,101461.50
2023-04-15T18:21:29.182Z,101468.59
2023-04-15T18:26:25.958Z,101473.97
2023-04-15T18:31:22.745Z,101482.31
2023-04-15T18:36:19.381Z,101495.75
2023-04-15T18:41:18.904Z,101502.88
2023-04-15T18:46:16.744Z,101512.84
2023-04-15T18:51:13.791Z,101511.50
2023-04-15T18:56:10.522Z,101532.03
2023-04-15T19:01:07.138Z,101530.09
2023-04-15T19:06:03.964Z,101539.47
2023-04-15T19:11:00.884Z,101541.31
2023-04-15T19:15:57.537Z,101548.06
2023-04-15T19:20:55.983Z,101560.38
2023-04-15T19:25:52.482Z,101570.69
2023-04-15T19:30:49.181Z,101578.41
2023-04-15T19:35:49.835Z,101584.88
2023-04-15T19:40:46.920Z,101593.06
2023-04-15T19:45:46.225Z,101604.81
2023-04-15T19:50:43.138Z,101606.88
2023-04-15T19:55:40.005Z,101612.34
2023-04-15T20:00:37.002Z,101616.47
2023-04-15T20:05:33.771Z,101615.06
2023-04-15T20:10:31.989Z,101609.75
2023-04-15T20:15:28.893Z,101614.75
2023-04-15T20:20:25.433Z,101622.47
2023-04-15T20:25:22.101Z,101622.47
2023-04-15T20:30:19.211Z,101632.94
2023-04-15T20:35:16.238Z,101635.56
2023-04-15T20:40:15.583Z,101636.91
2023-04-15T20:45:12.303Z,101637.84
2023-04-15T20:50:10.001Z,101645.22
2023-04-15T20:55:09.982Z,101647.97
2023-04-15T21:00:09.280Z,101653.88
2023-04-15T21:05:06.238Z,101654.09
2023-04-15T21:10:02.885Z,101652.44
2023-04-15T21:14:59.334Z,101656.91
2023-04-15T21:19:56.052Z,101660.22
2023-04-15T21:24:52.473Z,101671.13
2023-04-15T21:29:49.708Z,101681.59
2023-04-15T21:34:47.200Z,101683.78
2023-04-15T21:39:45.058Z,101684.88
2023-04-15T21:44:42.767Z,101682.59
2023-04-15T21:49:40.096Z,101691.88
2023-04-15T21:54:38.015Z,101698.50
2023-04-15T21:59:34.519Z,101702.88
2023-04-15T22:04:30.996Z,101702.88
2023-04-15T22:09:28.150Z,101707.25
2023-04-15T22:14:25.337Z,101708.31
2023-04-15T22:19:22.223Z,101708.03
2023-04-15T22:24:32.973Z,101712.13
2023-04-15T22:29:36.549Z,101712.97
2023-04-15T22:34:33.993Z,101714.84
2023-04-15T22:39:30.420Z,101716.31
2023-04-15T22:44:26.816Z,101714.34
2023-04-15T22:49:23.249Z,101713.78
2023-04-15T22:54:20.806Z,101726.59
2023-04-15T22:59:17.449Z,101735.56
2023-04-15T23:04:23.638Z,101738.41
2023-04-15T23:09:23.715Z,101745.97
2023-04-15T23:14:20.322Z,101747.09
2023-04-15T23:19:26.393Z,101754.72
2023-04-15T23:24:23.064Z,101773.81
2023-04-15T23:29:46.664Z,101770.00
2023-04-15T23:34:52.368Z,101774.34
2023-04-15T23:40:04.197Z,101767.28
2023-04-15T23:51:27.095Z,101760.72
2023-04-15T23:56:23.519Z,101773.81
